createdAt,value
2023-08-17T00:02:47.991Z,1.20
2023-08-17T00:07:51.521Z,1.23
2023-08-17T00:12:53.621Z,1.40
2023-08-17T00:17:55.515Z,1.02
2023-08-17T00:22:59.365Z,1.05
2023-08-17T00:28:01.426Z,1.27
2023-08-17T00:33:03.373Z,1.30
2023-08-17T00:38:07.231Z,1.20
2023-08-17T00:43:10.148Z,1.20
2023-08-17T00:48:13.109Z,1.10
2023-08-17T00:53:17.538Z,1.48
2023-08-17T00:58:19.584Z,1.17
2023-08-17T01:03:22.965Z,1.20
2023-08-17T01:08:27.148Z,1.08
2023-08-17T01:13:37.461Z,1.33
2023-08-17T01:18:42.130Z,1.10
2023-08-17T01:23:47.231Z,1.10
2023-08-17T01:28:50.070Z,1.00
2023-08-17T01:33:56.777Z,1.52
2023-08-17T01:39:04.216Z,1.50
2023-08-17T01:44:07.018Z,1.10
2023-08-17T01:49:08.978Z,0.90
2023-08-17T01:54:12.622Z,1.00
2023-08-17T01:59:15.253Z,1.00
2023-08-17T02:04:17.761Z,1.17
2023-08-17T02:09:20.861Z,1.08
2023-08-17T02:14:22.612Z,1.00
2023-08-17T02:19:24.665Z,0.90
2023-08-17T02:24:28.441Z,1.20
2023-08-17T02:29:30.636Z,1.30
2023-08-17T02:34:32.626Z,1.13
2023-08-17T02:39:35.911Z,1.40
2023-08-17T02:44:37.914Z,1.20
2023-08-17T02:49:39.934Z,1.40
2023-08-17T02:54:43.499Z,1.30
2023-08-17T02:59:45.668Z,1.40
2023-08-17T03:04:47.929Z,1.58
2023-08-17T03:09:51.361Z,1.60
2023-08-17T03:14:53.358Z,2.13
2023-08-17T03:19:55.221Z,3.22
2023-08-17T03:24:59.240Z,2.15
2023-08-17T03:30:01.006Z,1.95
2023-08-17T03:35:03.552Z,1.70
2023-08-17T03:40:08.623Z,2.10
2023-08-17T03:45:11.166Z,1.53
2023-08-17T03:50:13.211Z,1.67
2023-08-17T03:55:16.798Z,1.53
2023-08-17T04:00:18.974Z,2.00
2023-08-17T04:05:21.373Z,2.00
2023-08-17T04:10:25.003Z,2.20
2023-08-17T04:15:27.368Z,2.63
2023-08-17T04:20:29.429Z,2.43
2023-08-17T04:25:32.766Z,2.10
2023-08-17T04:30:34.731Z,2.00
2023-08-17T04:35:36.540Z,2.60
2023-08-17T04:40:39.779Z,2.10
2023-08-17T04:45:41.506Z,2.80
2023-08-17T04:50:43.495Z,2.77
2023-08-17T04:55:47.102Z,2.30
2023-08-17T05:00:49.466Z,3.10
2023-08-17T05:05:51.875Z,2.70
2023-08-17T05:10:55.613Z,3.37
2023-08-17T05:15:58.044Z,3.33
2023-08-17T05:21:00.165Z,2.57
2023-08-17T05:26:03.438Z,2.20
2023-08-17T05:31:09.030Z,4.00
2023-08-17T05:36:11.238Z,2.95
2023-08-17T05:41:14.612Z,2.83
2023-08-17T05:46:16.652Z,2.63
2023-08-17T05:51:19.292Z,2.30
2023-08-17T05:56:22.936Z,2.50
2023-08-17T06:01:25.476Z,3.42
2023-08-17T06:06:28.525Z,3.90
2023-08-17T06:11:32.108Z,3.40
2023-08-17T06:16:34.207Z,2.50
2023-08-17T06:21:36.468Z,3.17
2023-08-17T06:26:42.967Z,2.92
2023-08-17T06:31:45.111Z,3.25
2023-08-17T06:36:59.969Z,2.40
2023-08-17T06:42:03.521Z,2.13
2023-08-17T06:47:05.821Z,2.83
2023-08-17T06:52:08.015Z,2.88
2023-08-17T06:57:11.746Z,2.35
2023-08-17T07:02:13.786Z,1.60
2023-08-17T07:07:17.001Z,1.73
2023-08-17T07:12:21.273Z,2.10
2023-08-17T07:17:23.519Z,2.08
2023-08-17T07:22:26.182Z,1.67
2023-08-17T07:27:29.876Z,2.00
2023-08-17T07:32:32.559Z,1.63
2023-08-17T07:37:35.400Z,1.75
2023-08-17T07:42:39.645Z,1.60
2023-08-17T07:47:42.382Z,1.30
2023-08-17T07:52:44.295Z,1.55
2023-08-17T07:57:47.910Z,1.58
2023-08-17T08:02:50.066Z,1.80
2023-08-17T08:07:52.748Z,2.10
2023-08-17T08:12:56.675Z,1.92
2023-08-17T08:17:58.945Z,1.58
2023-08-17T08:23:01.531Z,1.90
2023-08-17T08:28:06.040Z,2.58
2023-08-17T08:33:08.307Z,2.35
2023-08-17T08:38:11.477Z,2.22
2023-08-17T08:43:14.887Z,1.75
2023-08-17T08:48:20.555Z,1.95
2023-08-17T08:58:40.784Z,1.90
2023-08-17T09:03:44.432Z,1.52
2023-08-17T09:08:47.683Z,1.70
2023-08-17T09:13:53.852Z,1.90
2023-08-17T09:18:56.243Z,2.05
2023-08-17T09:24:00.482Z,2.05
2023-08-17T09:29:19.571Z,1.67
2023-08-17T09:34:22.131Z,2.42
2023-08-17T09:39:24.853Z,1.90
2023-08-17T09:44:28.735Z,1.83
2023-08-17T09:49:36.557Z,1.70
2023-08-17T09:54:39.249Z,2.05
2023-08-17T09:59:43.365Z,1.52
2023-08-17T10:04:46.889Z,1.55
2023-08-17T10:09:55.483Z,1.85
2023-08-17T10:15:04.799Z,1.85
2023-08-17T10:20:07.928Z,1.73
2023-08-17T10:25:13.061Z,1.58
2023-08-17T10:30:16.714Z,2.00
2023-08-17T10:35:19.382Z,1.80
2023-08-17T10:40:29.447Z,2.03
2023-08-17T10:45:38.873Z,1.83
2023-08-17T10:50:43.801Z,1.75
2023-08-17T10:55:52.811Z,1.65
2023-08-17T11:00:58.757Z,1.58
2023-08-17T11:06:15.974Z,1.75
2023-08-17T11:11:18.913Z,1.85
2023-08-17T11:16:23.718Z,2.78
2023-08-17T11:21:26.329Z,2.97
2023-08-17T11:26:35.442Z,3.13
2023-08-17T11:31:42.943Z,2.85
2023-08-17T11:36:45.110Z,2.40
2023-08-17T11:41:47.744Z,2.50
2023-08-17T11:46:51.374Z,2.50
2023-08-17T11:51:54.463Z,3.00
2023-08-17T11:56:56.356Z,2.92
2023-08-17T12:01:59.856Z,2.42
2023-08-17T12:07:02.340Z,3.25
2023-08-17T12:12:04.460Z,2.88
2023-08-17T12:17:08.262Z,2.80
2023-08-17T12:22:10.171Z,2.80
2023-08-17T12:27:13.274Z,2.80
2023-08-17T12:32:19.682Z,2.67
2023-08-17T12:37:22.956Z,2.88
2023-08-17T12:42:25.372Z,2.97
2023-08-17T12:47:34.640Z,2.75
2023-08-17T12:52:37.173Z,3.20
2023-08-17T12:57:39.567Z,2.67
2023-08-17T13:02:43.501Z,2.88
2023-08-17T13:07:46.034Z,3.50
2023-08-17T13:12:49.066Z,3.13
2023-08-17T13:17:52.753Z,2.58
2023-08-17T13:22:54.956Z,2.85
2023-08-17T13:27:57.448Z,2.60
2023-08-17T13:33:00.971Z,3.13
2023-08-17T13:38:05.366Z,3.70
2023-08-17T13:43:13.323Z,2.90
2023-08-17T13:48:17.400Z,2.95
2023-08-17T13:53:19.609Z,2.80
2023-08-17T13:58:21.858Z,2.83
2023-08-17T14:03:25.838Z,3.15
2023-08-17T14:08:28.317Z,3.05
2023-08-17T14:13:30.566Z,3.05
2023-08-17T14:18:33.799Z,2.97
2023-08-17T14:23:35.737Z,3.20
2023-08-17T14:28:37.792Z,2.90
2023-08-17T14:33:41.558Z,3.63
2023-08-17T14:38:43.394Z,3.40
2023-08-17T14:43:45.417Z,3.35
2023-08-17T14:48:48.994Z,3.65
2023-08-17T14:53:50.876Z,4.50
2023-08-17T14:58:53.368Z,2.90
2023-08-17T15:03:57.363Z,3.00
2023-08-17T15:08:59.895Z,3.17
2023-08-17T15:14:01.994Z,2.80
2023-08-17T15:19:08.504Z,2.47
2023-08-17T15:24:10.731Z,2.47
2023-08-17T15:29:13.053Z,2.42
2023-08-17T15:34:16.595Z,2.35
2023-08-17T15:39:18.650Z,2.50
2023-08-17T15:44:21.511Z,2.50
2023-08-17T15:49:25.343Z,2.53
2023-08-17T15:54:35.904Z,1.95
2023-08-17T15:59:40.043Z,2.40
2023-08-17T16:04:44.012Z,1.98
2023-08-17T16:09:46.246Z,2.50
2023-08-17T16:14:50.045Z,2.13
2023-08-17T16:19:53.997Z,2.20
2023-08-17T16:24:56.320Z,2.85
2023-08-17T16:29:58.421Z,2.20
2023-08-17T16:35:02.856Z,2.63
2023-08-17T16:40:05.911Z,2.55
2023-08-17T16:45:10.643Z,2.72
2023-08-17T16:50:15.839Z,2.78
2023-08-17T16:55:19.827Z,2.80
2023-08-17T17:00:24.176Z,2.97
2023-08-17T17:05:30.435Z,3.05
2023-08-17T17:10:34.930Z,2.70
2023-08-17T17:15:39.531Z,2.80
2023-08-17T17:20:45.473Z,2.70
2023-08-17T17:25:49.998Z,2.95
2023-08-17T17:30:54.455Z,3.08
2023-08-17T17:36:00.526Z,3.10
2023-08-17T17:41:06.143Z,2.67
2023-08-17T17:46:10.769Z,3.28
2023-08-17T17:51:18.819Z,3.30
2023-08-17T17:56:39.317Z,2.88
2023-08-17T18:01:44.509Z,2.92
2023-08-17T18:06:50.730Z,2.78
2023-08-17T18:11:55.227Z,4.68
2023-08-17T18:17:01.747Z,2.72
2023-08-17T18:22:13.025Z,3.10
2023-08-17T18:27:18.049Z,3.17
2023-08-17T18:32:33.880Z,2.92
2023-08-17T18:37:41.558Z,2.78
2023-08-17T18:42:47.549Z,2.80
2023-08-17T18:47:55.607Z,3.10
2023-08-17T18:53:04.358Z,8.43
2023-08-17T18:58:09.321Z,3.42
2023-08-17T19:03:15.062Z,2.58
2023-08-17T19:08:22.680Z,3.40
2023-08-17T19:13:27.764Z,2.60
2023-08-17T19:18:34.117Z,2.70
2023-08-17T19:23:41.402Z,2.58
2023-08-17T19:28:47.442Z,3.15
2023-08-17T19:33:52.270Z,2.10
2023-08-17T19:38:59.136Z,1.90
2023-08-17T19:44:04.187Z,2.10
2023-08-17T19:49:12.800Z,2.00
2023-08-17T19:54:19.393Z,2.00
2023-08-17T19:59:24.157Z,4.72
2023-08-17T20:04:47.493Z,1.77
2023-08-17T20:09:57.559Z,1.98
2023-08-17T20:15:02.730Z,1.98
2023-08-17T20:20:12.193Z,2.30
2023-08-17T20:25:19.042Z,2.13
2023-08-17T20:30:25.038Z,1.88
2023-08-17T20:35:31.510Z,1.67
2023-08-17T20:40:38.864Z,1.98
2023-08-17T20:45:44.410Z,1.52
2023-08-17T20:50:49.455Z,2.03
2023-08-17T20:55:55.188Z,1.98
2023-08-17T21:00:59.796Z,2.20
2023-08-17T21:06:05.522Z,1.75
2023-08-17T21:11:09.176Z,1.80
2023-08-17T21:16:12.398Z,2.03
2023-08-17T21:21:14.975Z,1.73
2023-08-17T21:26:18.423Z,1.90
2023-08-17T21:31:20.689Z,1.65
2023-08-17T21:36:23.165Z,1.67
2023-08-17T21:41:26.566Z,2.00
2023-08-17T21:46:29.264Z,1.92
2023-08-17T21:51:31.320Z,1.67
2023-08-17T21:56:35.170Z,1.55
2023-08-17T22:01:37.266Z,1.70
2023-08-17T22:06:40.273Z,1.65
2023-08-17T22:11:44.133Z,1.80
2023-08-17T22:16:46.421Z,1.77
2023-08-17T22:21:49.122Z,1.65
2023-08-17T22:26:52.454Z,2.10
2023-08-17T22:31:54.457Z,1.90
2023-08-17T22:36:56.688Z,2.00
2023-08-17T22:42:00.378Z,2.22
2023-08-17T22:47:02.630Z,1.95
2023-08-17T22:52:05.786Z,1.85
2023-08-17T22:57:11.245Z,1.80
2023-08-17T23:02:13.336Z,1.95
2023-08-17T23:07:15.477Z,1.70
2023-08-17T23:12:19.080Z,1.70
2023-08-17T23:17:21.298Z,1.55
2023-08-17T23:22:23.109Z,1.80
2023-08-17T23:27:27.404Z,1.40
2023-08-17T23:32:30.174Z,1.80
2023-08-17T23:37:32.378Z,1.60
2023-08-17T23:42:36.037Z,1.70
2023-08-17T23:47:38.250Z,1.92
2023-08-17T23:52:40.124Z,1.65
2023-08-17T23:57:43.930Z,1.40
